sensor_id;sensor_type;location;lat;lon;timestamp;P1;durP1;ratioP1;P2;durP2;ratioP2
58918;SDS011;44704;50.122;19.932;2023-02-01T00:02:14;11.10;;;5.80;;
58918;SDS011;44704;50.122;19.932;2023-02-01T00:04:41;9.60;;;5.70;;
58918;SDS011;44704;50.122;19.932;2023-02-01T00:07:08;10.90;;;6.30;;
58918;SDS011;44704;50.122;19.932;2023-02-01T00:09:35;11.40;;;6.10;;
58918;SDS011;44704;50.122;19.932;2023-02-01T00:12:02;7.80;;;5.60;;
58918;SDS011;44704;50.122;19.932;2023-02-01T00:14:30;10.20;;;6.00;;
58918;SDS011;44704;50.122;19.932;2023-02-01T00:16:58;9.50;;;5.70;;
58918;SDS011;44704;50.122;19.932;2023-02-01T00:19:25;13.30;;;5.90;;
58918;SDS011;44704;50.122;19.932;2023-02-01T00:21:52;8.50;;;5.30;;
58918;SDS011;44704;50.122;19.932;2023-02-01T00:24:19;9.70;;;6.10;;
58918;SDS011;44704;50.122;19.932;2023-02-01T00:26:46;8.20;;;5.30;;
58918;SDS011;44704;50.122;19.932;2023-02-01T00:29:14;7.10;;;5.70;;
58918;SDS011;44704;50.122;19.932;2023-02-01T00:31:43;11.20;;;5.70;;
58918;SDS011;44704;50.122;19.932;2023-02-01T00:34:15;9.50;;;5.80;;
58918;SDS011;44704;50.122;19.932;2023-02-01T00:36:43;9.20;;;5.50;;
58918;SDS011;44704;50.122;19.932;2023-02-01T00:39:12;8.80;;;5.60;;
58918;SDS011;44704;50.122;19.932;2023-02-01T00:41:39;8.10;;;5.50;;
58918;SDS011;44704;50.122;19.932;2023-02-01T00:44:07;9.20;;;5.60;;
58918;SDS011;44704;50.122;19.932;2023-02-01T00:46:34;11.30;;;5.30;;
58918;SDS011;44704;50.122;19.932;2023-02-01T00:49:01;9.60;;;5.60;;
58918;SDS011;44704;50.122;19.932;2023-02-01T00:51:29;8.20;;;5.40;;
58918;SDS011;44704;50.122;19.932;2023-02-01T00:53:56;9.20;;;5.20;;
58918;SDS011;44704;50.122;19.932;2023-02-01T00:56:23;7.50;;;5.50;;
58918;SDS011;44704;50.122;19.932;2023-02-01T00:58:50;8.20;;;5.20;;
58918;SDS011;44704;50.122;19.932;2023-02-01T01:01:18;8.20;;;5.50;;
58918;SDS011;44704;50.122;19.932;2023-02-01T01:03:46;7.50;;;5.50;;
58918;SDS011;44704;50.122;19.932;2023-02-01T01:06:18;9.20;;;5.70;;
58918;SDS011;44704;50.122;19.932;2023-02-01T01:08:47;10.80;;;5.30;;
58918;SDS011;44704;50.122;19.932;2023-02-01T01:11:15;7.50;;;5.30;;
58918;SDS011;44704;50.122;19.932;2023-02-01T01:13:46;10.10;;;5.80;;
58918;SDS011;44704;50.122;19.932;2023-02-01T01:16:14;10.90;;;5.80;;
58918;SDS011;44704;50.122;19.932;2023-02-01T01:18:41;8.90;;;5.00;;
58918;SDS011;44704;50.122;19.932;2023-02-01T01:21:09;10.30;;;5.30;;
58918;SDS011;44704;50.122;19.932;2023-02-01T01:26:09;8.00;;;4.60;;
58918;SDS011;44704;50.122;19.932;2023-02-01T01:28:45;8.70;;;4.50;;
58918;SDS011;44704;50.122;19.932;2023-02-01T01:31:13;7.50;;;5.20;;
58918;SDS011;44704;50.122;19.932;2023-02-01T01:33:41;9.40;;;5.30;;
58918;SDS011;44704;50.122;19.932;2023-02-01T01:36:10;10.10;;;5.50;;
58918;SDS011;44704;50.122;19.932;2023-02-01T01:38:39;10.20;;;5.80;;
58918;SDS011;44704;50.122;19.932;2023-02-01T01:41:08;9.00;;;5.40;;
58918;SDS011;44704;50.122;19.932;2023-02-01T01:43:45;7.30;;;4.50;;
58918;SDS011;44704;50.122;19.932;2023-02-01T01:46:21;9.90;;;5.20;;
58918;SDS011;44704;50.122;19.932;2023-02-01T01:48:56;4.80;;;3.10;;
58918;SDS011;44704;50.122;19.932;2023-02-01T01:51:35;3.50;;;2.80;;
58918;SDS011;44704;50.122;19.932;2023-02-01T01:54:14;6.00;;;2.70;;
58918;SDS011;44704;50.122;19.932;2023-02-01T01:56:47;4.10;;;2.50;;
58918;SDS011;44704;50.122;19.932;2023-02-01T01:59:19;6.70;;;3.10;;
58918;SDS011;44704;50.122;19.932;2023-02-01T02:01:48;4.00;;;2.70;;
58918;SDS011;44704;50.122;19.932;2023-02-01T02:04:15;4.90;;;3.40;;
58918;SDS011;44704;50.122;19.932;2023-02-01T02:09:16;9.20;;;4.70;;
58918;SDS011;44704;50.122;19.932;2023-02-01T02:11:43;7.60;;;5.00;;
58918;SDS011;44704;50.122;19.932;2023-02-01T02:14:11;9.10;;;4.40;;
58918;SDS011;44704;50.122;19.932;2023-02-01T02:16:55;9.90;;;6.00;;
58918;SDS011;44704;50.122;19.932;2023-02-01T02:39:27;4.50;;;2.10;;
58918;SDS011;44704;50.122;19.932;2023-02-01T02:51:33;7.60;;;2.00;;
58918;SDS011;44704;50.122;19.932;2023-02-01T02:54:25;8.40;;;2.00;;
58918;SDS011;44704;50.122;19.932;2023-02-01T02:57:18;6.10;;;1.60;;
58918;SDS011;44704;50.122;19.932;2023-02-01T03:00:16;10.10;;;2.20;;
58918;SDS011;44704;50.122;19.932;2023-02-01T03:03:04;5.40;;;1.70;;
58918;SDS011;44704;50.122;19.932;2023-02-01T03:05:50;5.00;;;1.60;;
58918;SDS011;44704;50.122;19.932;2023-02-01T03:08:25;5.00;;;1.60;;
58918;SDS011;44704;50.122;19.932;2023-02-01T03:24:12;4.10;;;1.40;;
58918;SDS011;44704;50.122;19.932;2023-02-01T03:26:44;5.60;;;1.40;;
58918;SDS011;44704;50.122;19.932;2023-02-01T03:29:24;6.10;;;2.00;;
58918;SDS011;44704;50.122;19.932;2023-02-01T03:31:56;7.90;;;2.30;;
58918;SDS011;44704;50.122;19.932;2023-02-01T03:34:23;5.90;;;1.40;;
58918;SDS011;44704;50.122;19.932;2023-02-01T03:37:03;4.70;;;1.10;;
58918;SDS011;44704;50.122;19.932;2023-02-01T03:42:09;4.20;;;1.50;;
58918;SDS011;44704;50.122;19.932;2023-02-01T03:44:56;5.70;;;1.20;;
58918;SDS011;44704;50.122;19.932;2023-02-01T03:47:27;2.50;;;1.20;;
58918;SDS011;44704;50.122;19.932;2023-02-01T03:50:07;3.40;;;1.00;;
58918;SDS011;44704;50.122;19.932;2023-02-01T03:52:44;11.00;;;2.20;;
58918;SDS011;44704;50.122;19.932;2023-02-01T03:55:18;3.80;;;1.20;;
58918;SDS011;44704;50.122;19.932;2023-02-01T03:57:57;7.30;;;1.60;;
58918;SDS011;44704;50.122;19.932;2023-02-01T04:00:31;3.70;;;1.60;;
58918;SDS011;44704;50.122;19.932;2023-02-01T04:02:58;4.70;;;1.30;;
58918;SDS011;44704;50.122;19.932;2023-02-01T04:05:25;8.10;;;1.60;;
58918;SDS011;44704;50.122;19.932;2023-02-01T04:07:56;7.60;;;2.10;;
58918;SDS011;44704;50.122;19.932;2023-02-01T04:10:24;5.70;;;2.10;;
58918;SDS011;44704;50.122;19.932;2023-02-01T04:12:51;6.70;;;2.40;;
58918;SDS011;44704;50.122;19.932;2023-02-01T04:15:18;7.00;;;2.60;;
58918;SDS011;44704;50.122;19.932;2023-02-01T04:17:46;5.70;;;2.50;;
58918;SDS011;44704;50.122;19.932;2023-02-01T04:20:12;6.00;;;2.40;;
58918;SDS011;44704;50.122;19.932;2023-02-01T04:22:39;7.60;;;2.60;;
58918;SDS011;44704;50.122;19.932;2023-02-01T04:25:07;7.70;;;2.30;;
58918;SDS011;44704;50.122;19.932;2023-02-01T04:27:34;5.00;;;1.70;;
58918;SDS011;44704;50.122;19.932;2023-02-01T04:30:02;4.60;;;2.50;;
58918;SDS011;44704;50.122;19.932;2023-02-01T04:32:30;3.70;;;1.50;;
58918;SDS011;44704;50.122;19.932;2023-02-01T04:34:57;4.70;;;1.60;;
58918;SDS011;44704;50.122;19.932;2023-02-01T04:37:24;4.70;;;1.90;;
58918;SDS011;44704;50.122;19.932;2023-02-01T04:39:50;7.10;;;1.80;;
58918;SDS011;44704;50.122;19.932;2023-02-01T04:42:17;3.50;;;1.60;;
58918;SDS011;44704;50.122;19.932;2023-02-01T04:44:44;5.80;;;2.00;;
58918;SDS011;44704;50.122;19.932;2023-02-01T04:47:11;5.30;;;1.90;;
58918;SDS011;44704;50.122;19.932;2023-02-01T04:49:38;3.30;;;1.70;;
58918;SDS011;44704;50.122;19.932;2023-02-01T04:52:05;8.60;;;2.30;;
58918;SDS011;44704;50.122;19.932;2023-02-01T04:54:32;6.90;;;2.00;;
58918;SDS011;44704;50.122;19.932;2023-02-01T04:56:59;6.00;;;2.30;;
58918;SDS011;44704;50.122;19.932;2023-02-01T04:59:26;5.90;;;2.20;;
58918;SDS011;44704;50.122;19.932;2023-02-01T05:01:53;4.40;;;2.30;;
58918;SDS011;44704;50.122;19.932;2023-02-01T05:04:20;5.40;;;2.60;;
58918;SDS011;44704;50.122;19.932;2023-02-01T05:06:47;5.30;;;2.20;;
58918;SDS011;44704;50.122;19.932;2023-02-01T05:09:14;6.20;;;2.40;;
58918;SDS011;44704;50.122;19.932;2023-02-01T05:11:41;4.20;;;2.20;;
58918;SDS011;44704;50.122;19.932;2023-02-01T05:14:27;8.00;;;3.40;;
58918;SDS011;44704;50.122;19.932;2023-02-01T05:16:53;8.10;;;2.40;;
58918;SDS011;44704;50.122;19.932;2023-02-01T05:19:20;5.50;;;2.50;;
58918;SDS011;44704;50.122;19.932;2023-02-01T05:21:47;4.40;;;1.90;;
58918;SDS011;44704;50.122;19.932;2023-02-01T05:24:14;4.00;;;2.40;;
58918;SDS011;44704;50.122;19.932;2023-02-01T05:26:47;5.00;;;2.10;;
58918;SDS011;44704;50.122;19.932;2023-02-01T05:29:15;5.10;;;1.90;;
58918;SDS011;44704;50.122;19.932;2023-02-01T05:31:46;4.00;;;1.70;;
58918;SDS011;44704;50.122;19.932;2023-02-01T05:34:14;4.80;;;2.70;;
58918;SDS011;44704;50.122;19.932;2023-02-01T05:36:42;4.70;;;3.20;;
58918;SDS011;44704;50.122;19.932;2023-02-01T05:39:09;6.70;;;3.20;;
58918;SDS011;44704;50.122;19.932;2023-02-01T05:41:36;8.70;;;3.90;;
58918;SDS011;44704;50.122;19.932;2023-02-01T05:44:03;8.00;;;3.70;;
58918;SDS011;44704;50.122;19.932;2023-02-01T05:46:34;7.10;;;3.40;;
58918;SDS011;44704;50.122;19.932;2023-02-01T05:49:02;7.40;;;4.40;;
58918;SDS011;44704;50.122;19.932;2023-02-01T05:51:30;8.70;;;3.60;;
58918;SDS011;44704;50.122;19.932;2023-02-01T05:53:57;7.50;;;3.40;;
58918;SDS011;44704;50.122;19.932;2023-02-01T05:56:24;8.90;;;3.90;;
58918;SDS011;44704;50.122;19.932;2023-02-01T05:58:50;7.70;;;4.40;;
58918;SDS011;44704;50.122;19.932;2023-02-01T06:01:17;6.60;;;3.60;;
58918;SDS011;44704;50.122;19.932;2023-02-01T06:03:44;6.40;;;3.40;;
58918;SDS011;44704;50.122;19.932;2023-02-01T06:06:11;7.80;;;4.30;;
58918;SDS011;44704;50.122;19.932;2023-02-01T06:08:38;9.30;;;3.60;;
58918;SDS011;44704;50.122;19.932;2023-02-01T06:11:06;7.40;;;3.90;;
58918;SDS011;44704;50.122;19.932;2023-02-01T06:13:34;7.50;;;3.80;;
58918;SDS011;44704;50.122;19.932;2023-02-01T06:16:02;8.90;;;4.10;;
58918;SDS011;44704;50.122;19.932;2023-02-01T06:18:29;7.60;;;4.40;;
58918;SDS011;44704;50.122;19.932;2023-02-01T06:20:57;8.40;;;4.20;;
58918;SDS011;44704;50.122;19.932;2023-02-01T06:23:29;5.70;;;3.20;;
58918;SDS011;44704;50.122;19.932;2023-02-01T06:26:01;8.20;;;3.30;;
58918;SDS011;44704;50.122;19.932;2023-02-01T06:28:30;7.70;;;3.90;;
58918;SDS011;44704;50.122;19.932;2023-02-01T06:31:02;9.30;;;3.60;;
58918;SDS011;44704;50.122;19.932;2023-02-01T06:33:33;8.10;;;3.50;;
58918;SDS011;44704;50.122;19.932;2023-02-01T06:36:01;10.80;;;4.30;;
58918;SDS011;44704;50.122;19.932;2023-02-01T06:38:30;9.80;;;3.80;;
58918;SDS011;44704;50.122;19.932;2023-02-01T06:40:58;13.10;;;4.40;;
58918;SDS011;44704;50.122;19.932;2023-02-01T06:43:25;11.10;;;3.40;;
58918;SDS011;44704;50.122;19.932;2023-02-01T06:45:53;10.60;;;3.90;;
58918;SDS011;44704;50.122;19.932;2023-02-01T06:48:20;11.60;;;4.70;;
58918;SDS011;44704;50.122;19.932;2023-02-01T06:50:47;7.80;;;3.10;;
58918;SDS011;44704;50.122;19.932;2023-02-01T06:53:14;8.20;;;3.60;;
58918;SDS011;44704;50.122;19.932;2023-02-01T06:55:41;12.60;;;4.00;;
58918;SDS011;44704;50.122;19.932;2023-02-01T06:58:08;13.60;;;4.40;;
58918;SDS011;44704;50.122;19.932;2023-02-01T07:00:34;9.60;;;3.90;;
58918;SDS011;44704;50.122;19.932;2023-02-01T07:03:02;13.60;;;4.70;;
58918;SDS011;44704;50.122;19.932;2023-02-01T07:05:29;10.70;;;3.50;;
58918;SDS011;44704;50.122;19.932;2023-02-01T07:07:56;10.30;;;3.90;;
58918;SDS011;44704;50.122;19.932;2023-02-01T07:10:23;11.00;;;4.10;;
58918;SDS011;44704;50.122;19.932;2023-02-01T07:12:50;12.00;;;4.00;;
58918;SDS011;44704;50.122;19.932;2023-02-01T07:15:17;8.80;;;3.70;;
58918;SDS011;44704;50.122;19.932;2023-02-01T07:17:44;10.60;;;4.20;;
58918;SDS011;44704;50.122;19.932;2023-02-01T07:20:13;9.80;;;4.20;;
58918;SDS011;44704;50.122;19.932;2023-02-01T07:22:40;11.40;;;4.20;;
58918;SDS011;44704;50.122;19.932;2023-02-01T07:25:07;8.00;;;4.00;;
58918;SDS011;44704;50.122;19.932;2023-02-01T07:27:34;11.40;;;3.80;;
58918;SDS011;44704;50.122;19.932;2023-02-01T07:30:03;8.50;;;3.90;;
58918;SDS011;44704;50.122;19.932;2023-02-01T07:32:31;9.40;;;4.00;;
58918;SDS011;44704;50.122;19.932;2023-02-01T07:34:58;12.50;;;4.30;;
58918;SDS011;44704;50.122;19.932;2023-02-01T07:37:25;8.90;;;3.70;;
58918;SDS011;44704;50.122;19.932;2023-02-01T07:39:52;12.20;;;3.90;;
58918;SDS011;44704;50.122;19.932;2023-02-01T07:42:19;9.90;;;4.20;;
58918;SDS011;44704;50.122;19.932;2023-02-01T07:44:46;13.80;;;3.70;;
58918;SDS011;44704;50.122;19.932;2023-02-01T07:47:13;11.20;;;3.40;;
58918;SDS011;44704;50.122;19.932;2023-02-01T07:49:40;9.30;;;3.50;;
58918;SDS011;44704;50.122;19.932;2023-02-01T07:52:06;14.40;;;3.60;;
58918;SDS011;44704;50.122;19.932;2023-02-01T07:54:33;11.40;;;3.60;;
58918;SDS011;44704;50.122;19.932;2023-02-01T07:57:00;9.80;;;3.30;;
58918;SDS011;44704;50.122;19.932;2023-02-01T07:59:27;10.90;;;2.80;;
58918;SDS011;44704;50.122;19.932;2023-02-01T08:01:54;14.00;;;3.80;;
58918;SDS011;44704;50.122;19.932;2023-02-01T08:04:20;9.90;;;2.90;;
58918;SDS011;44704;50.122;19.932;2023-02-01T08:06:47;9.70;;;4.30;;
58918;SDS011;44704;50.122;19.932;2023-02-01T08:09:14;9.80;;;2.60;;
58918;SDS011;44704;50.122;19.932;2023-02-01T08:11:41;7.90;;;2.80;;
58918;SDS011;44704;50.122;19.932;2023-02-01T08:14:08;8.00;;;3.00;;
58918;SDS011;44704;50.122;19.932;2023-02-01T08:16:35;5.70;;;2.40;;
58918;SDS011;44704;50.122;19.932;2023-02-01T08:19:04;6.40;;;2.40;;
58918;SDS011;44704;50.122;19.932;2023-02-01T08:21:30;6.40;;;2.70;;
58918;SDS011;44704;50.122;19.932;2023-02-01T08:24:06;8.50;;;3.40;;
58918;SDS011;44704;50.122;19.932;2023-02-01T08:26:34;9.00;;;4.20;;
58918;SDS011;44704;50.122;19.932;2023-02-01T08:29:02;9.80;;;2.90;;
58918;SDS011;44704;50.122;19.932;2023-02-01T08:33:59;7.90;;;2.80;;
58918;SDS011;44704;50.122;19.932;2023-02-01T08:36:28;6.90;;;2.80;;
58918;SDS011;44704;50.122;19.932;2023-02-01T08:38:56;6.30;;;3.10;;
58918;SDS011;44704;50.122;19.932;2023-02-01T08:41:25;7.00;;;3.30;;
58918;SDS011;44704;50.122;19.932;2023-02-01T08:43:53;8.60;;;2.90;;
58918;SDS011;44704;50.122;19.932;2023-02-01T08:46:20;8.50;;;3.10;;
58918;SDS011;44704;50.122;19.932;2023-02-01T08:48:48;6.90;;;3.00;;
58918;SDS011;44704;50.122;19.932;2023-02-01T08:51:16;10.60;;;3.30;;
58918;SDS011;44704;50.122;19.932;2023-02-01T08:53:45;8.40;;;3.40;;
58918;SDS011;44704;50.122;19.932;2023-02-01T08:56:14;8.30;;;3.60;;
58918;SDS011;44704;50.122;19.932;2023-02-01T08:58:42;10.10;;;3.70;;
58918;SDS011;44704;50.122;19.932;2023-02-01T09:01:10;11.70;;;3.80;;
58918;SDS011;44704;50.122;19.932;2023-02-01T09:03:39;9.70;;;3.80;;
58918;SDS011;44704;50.122;19.932;2023-02-01T09:06:07;8.30;;;3.70;;
58918;SDS011;44704;50.122;19.932;2023-02-01T09:08:37;11.70;;;4.40;;
58918;SDS011;44704;50.122;19.932;2023-02-01T09:11:07;9.30;;;3.90;;
58918;SDS011;44704;50.122;19.932;2023-02-01T09:13:37;10.50;;;4.30;;
58918;SDS011;44704;50.122;19.932;2023-02-01T09:16:04;12.30;;;5.20;;
58918;SDS011;44704;50.122;19.932;2023-02-01T09:18:32;8.50;;;4.80;;
58918;SDS011;44704;50.122;19.932;2023-02-01T09:20:59;12.10;;;4.10;;
58918;SDS011;44704;50.122;19.932;2023-02-01T09:23:25;6.60;;;3.50;;
58918;SDS011;44704;50.122;19.932;2023-02-01T09:25:52;6.80;;;3.20;;
58918;SDS011;44704;50.122;19.932;2023-02-01T09:28:19;8.10;;;3.30;;
58918;SDS011;44704;50.122;19.932;2023-02-01T09:30:46;8.70;;;3.50;;
58918;SDS011;44704;50.122;19.932;2023-02-01T09:33:13;12.10;;;4.90;;
58918;SDS011;44704;50.122;19.932;2023-02-01T09:35:41;7.80;;;3.30;;
58918;SDS011;44704;50.122;19.932;2023-02-01T09:38:09;11.10;;;3.70;;
58918;SDS011;44704;50.122;19.932;2023-02-01T09:40:39;7.60;;;3.60;;
58918;SDS011;44704;50.122;19.932;2023-02-01T09:43:18;5.80;;;3.00;;
58918;SDS011;44704;50.122;19.932;2023-02-01T09:48:43;8.40;;;2.60;;
58918;SDS011;44704;50.122;19.932;2023-02-01T09:51:16;7.80;;;3.20;;
58918;SDS011;44704;50.122;19.932;2023-02-01T09:53:48;7.20;;;2.80;;
58918;SDS011;44704;50.122;19.932;2023-02-01T09:56:45;9.10;;;2.80;;
58918;SDS011;44704;50.122;19.932;2023-02-01T10:02:00;8.20;;;3.90;;
58918;SDS011;44704;50.122;19.932;2023-02-01T10:04:30;8.40;;;3.30;;
58918;SDS011;44704;50.122;19.932;2023-02-01T10:07:02;8.90;;;3.40;;
58918;SDS011;44704;50.122;19.932;2023-02-01T10:29:41;6.10;;;2.20;;
58918;SDS011;44704;50.122;19.932;2023-02-01T10:32:16;5.90;;;2.40;;
58918;SDS011;44704;50.122;19.932;2023-02-01T10:34:50;9.90;;;3.70;;
58918;SDS011;44704;50.122;19.932;2023-02-01T10:37:29;11.10;;;4.70;;
58918;SDS011;44704;50.122;19.932;2023-02-01T10:40:02;8.30;;;3.90;;
58918;SDS011;44704;50.122;19.932;2023-02-01T10:42:39;6.00;;;3.20;;
58918;SDS011;44704;50.122;19.932;2023-02-01T10:45:06;7.80;;;3.10;;
58918;SDS011;44704;50.122;19.932;2023-02-01T10:47:39;14.10;;;5.80;;
58918;SDS011;44704;50.122;19.932;2023-02-01T10:53:03;10.40;;;4.30;;
58918;SDS011;44704;50.122;19.932;2023-02-01T10:55:38;10.00;;;5.60;;
58918;SDS011;44704;50.122;19.932;2023-02-01T10:58:12;13.10;;;6.00;;
58918;SDS011;44704;50.122;19.932;2023-02-01T11:01:04;11.30;;;4.90;;
58918;SDS011;44704;50.122;19.932;2023-02-01T11:03:37;8.60;;;4.10;;
58918;SDS011;44704;50.122;19.932;2023-02-01T11:08:45;16.70;;;7.70;;
58918;SDS011;44704;50.122;19.932;2023-02-01T11:11:15;14.70;;;6.70;;
58918;SDS011;44704;50.122;19.932;2023-02-01T11:13:42;14.70;;;5.70;;
58918;SDS011;44704;50.122;19.932;2023-02-01T11:16:11;12.70;;;7.20;;
58918;SDS011;44704;50.122;19.932;2023-02-01T11:18:40;13.10;;;6.70;;
58918;SDS011;44704;50.122;19.932;2023-02-01T11:21:08;8.50;;;4.60;;
58918;SDS011;44704;50.122;19.932;2023-02-01T11:23:43;21.80;;;8.90;;
58918;SDS011;44704;50.122;19.932;2023-02-01T11:26:19;24.70;;;10.60;;
58918;SDS011;44704;50.122;19.932;2023-02-01T11:28:51;18.80;;;9.20;;
58918;SDS011;44704;50.122;19.932;2023-02-01T11:31:29;13.80;;;6.90;;
58918;SDS011;44704;50.122;19.932;2023-02-01T11:34:00;14.20;;;7.30;;
58918;SDS011;44704;50.122;19.932;2023-02-01T11:37:00;18.00;;;7.80;;
58918;SDS011;44704;50.122;19.932;2023-02-01T11:39:30;20.10;;;9.70;;
58918;SDS011;44704;50.122;19.932;2023-02-01T11:42:16;30.40;;;12.10;;
58918;SDS011;44704;50.122;19.932;2023-02-01T11:44:45;22.00;;;8.50;;
58918;SDS011;44704;50.122;19.932;2023-02-01T11:49:51;17.70;;;8.40;;
58918;SDS011;44704;50.122;19.932;2023-02-01T11:55:44;11.50;;;4.90;;
58918;SDS011;44704;50.122;19.932;2023-02-01T12:07:05;7.90;;;3.60;;
58918;SDS011;44704;50.122;19.932;2023-02-01T12:12:53;9.40;;;4.20;;
58918;SDS011;44704;50.122;19.932;2023-02-01T12:15:41;10.00;;;4.40;;
58918;SDS011;44704;50.122;19.932;2023-02-01T12:19:22;9.20;;;4.40;;
58918;SDS011;44704;50.122;19.932;2023-02-01T12:46:12;15.00;;;5.40;;
58918;SDS011;44704;50.122;19.932;2023-02-01T12:48:48;6.00;;;3.90;;
58918;SDS011;44704;50.122;19.932;2023-02-01T12:51:29;7.40;;;4.40;;
58918;SDS011;44704;50.122;19.932;2023-02-01T12:56:51;9.20;;;3.20;;
58918;SDS011;44704;50.122;19.932;2023-02-01T12:59:30;8.10;;;3.80;;
58918;SDS011;44704;50.122;19.932;2023-02-01T13:04:49;8.50;;;3.60;;
58918;SDS011;44704;50.122;19.932;2023-02-01T13:07:30;6.70;;;3.50;;
58918;SDS011;44704;50.122;19.932;2023-02-01T13:17:55;7.70;;;3.60;;
58918;SDS011;44704;50.122;19.932;2023-02-01T13:23:08;9.50;;;4.40;;
58918;SDS011;44704;50.122;19.932;2023-02-01T13:28:18;12.30;;;4.80;;
58918;SDS011;44704;50.122;19.932;2023-02-01T13:42:50;9.00;;;4.80;;
58918;SDS011;44704;50.122;19.932;2023-02-01T13:45:24;12.50;;;5.20;;
58918;SDS011;44704;50.122;19.932;2023-02-01T13:47:55;11.90;;;5.30;;
58918;SDS011;44704;50.122;19.932;2023-02-01T13:50:31;10.10;;;4.70;;
58918;SDS011;44704;50.122;19.932;2023-02-01T13:55:46;8.90;;;5.70;;
58918;SDS011;44704;50.122;19.932;2023-02-01T14:03:43;13.80;;;6.70;;
58918;SDS011;44704;50.122;19.932;2023-02-01T14:14:51;15.20;;;7.00;;
58918;SDS011;44704;50.122;19.932;2023-02-01T14:19:26;13.00;;;6.70;;
58918;SDS011;44704;50.122;19.932;2023-02-01T14:21:55;13.90;;;6.50;;
58918;SDS011;44704;50.122;19.932;2023-02-01T14:24:26;16.90;;;7.00;;
58918;SDS011;44704;50.122;19.932;2023-02-01T14:26:59;15.80;;;6.70;;
58918;SDS011;44704;50.122;19.932;2023-02-01T14:29:49;13.70;;;6.40;;
58918;SDS011;44704;50.122;19.932;2023-02-01T14:32:25;15.80;;;5.70;;
58918;SDS011;44704;50.122;19.932;2023-02-01T14:34:59;12.40;;;6.30;;
58918;SDS011;44704;50.122;19.932;2023-02-01T14:37:32;11.50;;;5.60;;
58918;SDS011;44704;50.122;19.932;2023-02-01T14:40:03;13.40;;;5.90;;
58918;SDS011;44704;50.122;19.932;2023-02-01T14:42:43;10.40;;;5.90;;
58918;SDS011;44704;50.122;19.932;2023-02-01T14:55:43;6.90;;;4.20;;
58918;SDS011;44704;50.122;19.932;2023-02-01T14:58:51;11.70;;;4.80;;
58918;SDS011;44704;50.122;19.932;2023-02-01T15:01:31;8.60;;;5.40;;
58918;SDS011;44704;50.122;19.932;2023-02-01T15:04:05;8.50;;;5.10;;
58918;SDS011;44704;50.122;19.932;2023-02-01T15:06:57;9.50;;;4.10;;
58918;SDS011;44704;50.122;19.932;2023-02-01T15:09:31;7.80;;;4.90;;
58918;SDS011;44704;50.122;19.932;2023-02-01T15:14:45;6.50;;;4.50;;
58918;SDS011;44704;50.122;19.932;2023-02-01T15:17:31;9.80;;;4.50;;
58918;SDS011;44704;50.122;19.932;2023-02-01T15:20:22;8.10;;;5.20;;
58918;SDS011;44704;50.122;19.932;2023-02-01T15:25:22;8.60;;;5.40;;
58918;SDS011;44704;50.122;19.932;2023-02-01T15:27:52;12.30;;;8.70;;
58918;SDS011;44704;50.122;19.932;2023-02-01T15:30:20;10.90;;;6.00;;
58918;SDS011;44704;50.122;19.932;2023-02-01T15:32:50;11.20;;;7.40;;
58918;SDS011;44704;50.122;19.932;2023-02-01T15:43:43;13.20;;;7.70;;
58918;SDS011;44704;50.122;19.932;2023-02-01T15:46:39;10.40;;;6.10;;
58918;SDS011;44704;50.122;19.932;2023-02-01T15:49:28;8.00;;;5.30;;
58918;SDS011;44704;50.122;19.932;2023-02-01T15:54:28;12.20;;;7.00;;
58918;SDS011;44704;50.122;19.932;2023-02-01T15:56:59;10.60;;;6.00;;
58918;SDS011;44704;50.122;19.932;2023-02-01T15:59:32;12.20;;;6.30;;
58918;SDS011;44704;50.122;19.932;2023-02-01T16:04:58;7.70;;;4.80;;
58918;SDS011;44704;50.122;19.932;2023-02-01T16:07:30;11.30;;;5.70;;
58918;SDS011;44704;50.122;19.932;2023-02-01T16:10:00;14.30;;;7.60;;
58918;SDS011;44704;50.122;19.932;2023-02-01T16:12:34;12.10;;;6.80;;
58918;SDS011;44704;50.122;19.932;2023-02-01T16:17:39;15.80;;;8.10;;
58918;SDS011;44704;50.122;19.932;2023-02-01T16:20:07;10.80;;;6.90;;
58918;SDS011;44704;50.122;19.932;2023-02-01T16:22:35;9.90;;;5.50;;
58918;SDS011;44704;50.122;19.932;2023-02-01T16:25:02;15.60;;;8.60;;
58918;SDS011;44704;50.122;19.932;2023-02-01T16:27:29;12.70;;;8.50;;
58918;SDS011;44704;50.122;19.932;2023-02-01T16:29:56;17.40;;;9.90;;
58918;SDS011;44704;50.122;19.932;2023-02-01T16:32:23;17.70;;;10.60;;
58918;SDS011;44704;50.122;19.932;2023-02-01T16:34:50;22.10;;;11.10;;
58918;SDS011;44704;50.122;19.932;2023-02-01T16:37:20;15.70;;;10.50;;
58918;SDS011;44704;50.122;19.932;2023-02-01T16:39:48;16.50;;;11.20;;
58918;SDS011;44704;50.122;19.932;2023-02-01T16:42:15;15.30;;;9.40;;
58918;SDS011;44704;50.122;19.932;2023-02-01T16:44:43;15.60;;;9.60;;
58918;SDS011;44704;50.122;19.932;2023-02-01T16:47:14;11.90;;;8.40;;
58918;SDS011;44704;50.122;19.932;2023-02-01T16:49:44;16.90;;;10.70;;
58918;SDS011;44704;50.122;19.932;2023-02-01T16:52:13;15.00;;;9.90;;
58918;SDS011;44704;50.122;19.932;2023-02-01T16:54:43;17.20;;;10.50;;
58918;SDS011;44704;50.122;19.932;2023-02-01T16:57:14;16.60;;;10.70;;
58918;SDS011;44704;50.122;19.932;2023-02-01T16:59:43;19.00;;;12.30;;
58918;SDS011;44704;50.122;19.932;2023-02-01T17:02:12;18.80;;;12.40;;
58918;SDS011;44704;50.122;19.932;2023-02-01T17:07:10;15.60;;;9.30;;
58918;SDS011;44704;50.122;19.932;2023-02-01T17:09:39;21.40;;;12.10;;
58918;SDS011;44704;50.122;19.932;2023-02-01T17:12:09;17.00;;;10.10;;
58918;SDS011;44704;50.122;19.932;2023-02-01T17:14:48;14.90;;;9.20;;
58918;SDS011;44704;50.122;19.932;2023-02-01T17:17:16;20.00;;;10.40;;
58918;SDS011;44704;50.122;19.932;2023-02-01T17:19:45;17.50;;;10.40;;
58918;SDS011;44704;50.122;19.932;2023-02-01T17:22:17;18.20;;;10.70;;
58918;SDS011;44704;50.122;19.932;2023-02-01T17:24:45;15.00;;;10.70;;
58918;SDS011;44704;50.122;19.932;2023-02-01T17:27:12;14.70;;;9.60;;
58918;SDS011;44704;50.122;19.932;2023-02-01T17:29:40;15.20;;;10.40;;
58918;SDS011;44704;50.122;19.932;2023-02-01T17:32:18;20.00;;;11.50;;
58918;SDS011;44704;50.122;19.932;2023-02-01T17:34:48;16.70;;;10.80;;
58918;SDS011;44704;50.122;19.932;2023-02-01T17:37:25;18.40;;;11.90;;
58918;SDS011;44704;50.122;19.932;2023-02-01T17:39:57;18.90;;;13.00;;
58918;SDS011;44704;50.122;19.932;2023-02-01T17:42:25;18.00;;;11.60;;
58918;SDS011;44704;50.122;19.932;2023-02-01T17:44:57;16.60;;;9.60;;
58918;SDS011;44704;50.122;19.932;2023-02-01T17:47:27;19.20;;;11.20;;
58918;SDS011;44704;50.122;19.932;2023-02-01T17:49:54;16.30;;;10.70;;
58918;SDS011;44704;50.122;19.932;2023-02-01T17:52:24;14.50;;;9.20;;
58918;SDS011;44704;50.122;19.932;2023-02-01T17:54:51;21.60;;;13.10;;
58918;SDS011;44704;50.122;19.932;2023-02-01T17:57:19;18.90;;;11.80;;
58918;SDS011;44704;50.122;19.932;2023-02-01T17:59:46;15.40;;;10.00;;
58918;SDS011;44704;50.122;19.932;2023-02-01T18:02:16;20.00;;;13.60;;
58918;SDS011;44704;50.122;19.932;2023-02-01T18:04:45;23.90;;;13.40;;
58918;SDS011;44704;50.122;19.932;2023-02-01T18:07:12;22.40;;;14.00;;
58918;SDS011;44704;50.122;19.932;2023-02-01T18:09:39;24.50;;;14.60;;
58918;SDS011;44704;50.122;19.932;2023-02-01T18:12:12;24.90;;;14.90;;
58918;SDS011;44704;50.122;19.932;2023-02-01T18:14:44;20.90;;;13.50;;
58918;SDS011;44704;50.122;19.932;2023-02-01T18:17:11;25.50;;;14.90;;
58918;SDS011;44704;50.122;19.932;2023-02-01T18:19:38;20.80;;;13.10;;
58918;SDS011;44704;50.122;19.932;2023-02-01T18:22:05;26.30;;;14.60;;